sensor_id;sensor_type;location;lat;lon;timestamp;temperature;humidity
4050;DHT22;2039;50.894;6.888;2024-02-28T00:00:46;2.30;99.90
4050;DHT22;2039;50.894;6.888;2024-02-28T00:03:12;2.40;99.90
4050;DHT22;2039;50.894;6.888;2024-02-28T00:05:38;2.40;99.90
4050;DHT22;2039;50.894;6.888;2024-02-28T00:08:04;2.40;99.90
4050;DHT22;2039;50.894;6.888;2024-02-28T00:10:30;2.40;99.90
4050;DHT22;2039;50.894;6.888;2024-02-28T00:12:55;2.50;99.90
4050;DHT22;2039;50.894;6.888;2024-02-28T00:15:21;2.40;99.90
4050;DHT22;2039;50.894;6.888;2024-02-28T00:17:47;2.40;99.90
4050;DHT22;2039;50.894;6.888;2024-02-28T00:20:12;2.40;99.90
4050;DHT22;2039;50.894;6.888;2024-02-28T00:22:39;2.50;99.90
4050;DHT22;2039;50.894;6.888;2024-02-28T00:25:08;2.60;99.90
4050;DHT22;2039;50.894;6.888;2024-02-28T00:27:35;2.60;99.90
4050;DHT22;2039;50.894;6.888;2024-02-28T00:30:01;2.70;99.90
4050;DHT22;2039;50.894;6.888;2024-02-28T00:32:26;2.80;99.90
4050;DHT22;2039;50.894;6.888;2024-02-28T00:34:52;2.80;99.90
4050;DHT22;2039;50.894;6.888;2024-02-28T00:37:18;2.90;99.90
4050;DHT22;2039;50.894;6.888;2024-02-28T00:39:45;3.00;99.90
4050;DHT22;2039;50.894;6.888;2024-02-28T00:42:10;3.10;99.90
4050;DHT22;2039;50.894;6.888;2024-02-28T00:44:36;3.10;99.90
4050;DHT22;2039;50.894;6.888;2024-02-28T00:47:02;3.10;99.90
4050;DHT22;2039;50.894;6.888;2024-02-28T00:49:27;3.20;99.90
4050;DHT22;2039;50.894;6.888;2024-02-28T00:51:53;3.20;99.90
4050;DHT22;2039;50.894;6.888;2024-02-28T00:54:18;3.20;99.90
4050;DHT22;2039;50.894;6.888;2024-02-28T00:56:44;3.20;99.90
4050;DHT22;2039;50.894;6.888;2024-02-28T00:59:10;3.20;99.90
4050;DHT22;2039;50.894;6.888;2024-02-28T01:01:40;3.30;99.90
4050;DHT22;2039;50.894;6.888;2024-02-28T01:04:07;3.40;99.90
4050;DHT22;2039;50.894;6.888;2024-02-28T01:06:33;3.40;99.90
4050;DHT22;2039;50.894;6.888;2024-02-28T01:08:58;3.40;99.90
4050;DHT22;2039;50.894;6.888;2024-02-28T01:11:25;3.50;99.90
4050;DHT22;2039;50.894;6.888;2024-02-28T01:13:50;3.50;99.90
4050;DHT22;2039;50.894;6.888;2024-02-28T01:16:16;3.50;99.90
4050;DHT22;2039;50.894;6.888;2024-02-28T01:18:42;3.50;99.90
4050;DHT22;2039;50.894;6.888;2024-02-28T01:21:08;3.60;99.90
4050;DHT22;2039;50.894;6.888;2024-02-28T01:23:33;3.60;99.90
4050;DHT22;2039;50.894;6.888;2024-02-28T01:25:59;3.60;99.90
4050;DHT22;2039;50.894;6.888;2024-02-28T01:28:28;3.70;99.90
4050;DHT22;2039;50.894;6.888;2024-02-28T01:30:54;3.70;99.90
4050;DHT22;2039;50.894;6.888;2024-02-28T01:33:19;3.70;99.90
4050;DHT22;2039;50.894;6.888;2024-02-28T01:35:45;3.70;99.90
4050;DHT22;2039;50.894;6.888;2024-02-28T01:38:11;3.70;99.90
4050;DHT22;2039;50.894;6.888;2024-02-28T01:40:36;3.70;99.90
4050;DHT22;2039;50.894;6.888;2024-02-28T01:43:03;3.70;99.90
4050;DHT22;2039;50.894;6.888;2024-02-28T01:45:29;3.70;99.90
4050;DHT22;2039;50.894;6.888;2024-02-28T01:47:55;3.70;99.90
4050;DHT22;2039;50.894;6.888;2024-02-28T01:50:21;3.70;99.90
4050;DHT22;2039;50.894;6.888;2024-02-28T01:52:47;3.70;99.90
4050;DHT22;2039;50.894;6.888;2024-02-28T01:55:12;3.70;99.90
4050;DHT22;2039;50.894;6.888;2024-02-28T01:57:39;3.80;99.90
4050;DHT22;2039;50.894;6.888;2024-02-28T02:00:06;3.80;99.90
4050;DHT22;2039;50.894;6.888;2024-02-28T02:02:34;3.80;99.90
4050;DHT22;2039;50.894;6.888;2024-02-28T02:04:59;3.90;99.90
4050;DHT22;2039;50.894;6.888;2024-02-28T02:07:25;3.90;99.90
4050;DHT22;2039;50.894;6.888;2024-02-28T02:09:51;3.90;99.90
4050;DHT22;2039;50.894;6.888;2024-02-28T02:12:18;3.90;99.90
4050;DHT22;2039;50.894;6.888;2024-02-28T02:14:50;3.90;99.90
4050;DHT22;2039;50.894;6.888;2024-02-28T02:17:15;4.00;99.90
4050;DHT22;2039;50.894;6.888;2024-02-28T02:19:42;4.10;99.90
4050;DHT22;2039;50.894;6.888;2024-02-28T02:22:08;4.10;99.90
4050;DHT22;2039;50.894;6.888;2024-02-28T02:24:37;4.10;99.90
4050;DHT22;2039;50.894;6.888;2024-02-28T02:27:03;4.10;99.90
4050;DHT22;2039;50.894;6.888;2024-02-28T02:29:31;4.10;99.90
4050;DHT22;2039;50.894;6.888;2024-02-28T02:31:57;4.20;99.90
4050;DHT22;2039;50.894;6.888;2024-02-28T02:34:22;4.30;99.90
4050;DHT22;2039;50.894;6.888;2024-02-28T02:36:48;4.30;99.90
4050;DHT22;2039;50.894;6.888;2024-02-28T02:39:14;4.20;99.90
4050;DHT22;2039;50.894;6.888;2024-02-28T02:41:39;4.20;99.90
4050;DHT22;2039;50.894;6.888;2024-02-28T02:44:07;4.40;99.90
4050;DHT22;2039;50.894;6.888;2024-02-28T02:46:33;4.30;99.90
4050;DHT22;2039;50.894;6.888;2024-02-28T02:48:58;4.20;99.90
4050;DHT22;2039;50.894;6.888;2024-02-28T02:51:24;4.20;99.90
4050;DHT22;2039;50.894;6.888;2024-02-28T02:53:51;4.20;99.90
4050;DHT22;2039;50.894;6.888;2024-02-28T02:56:16;4.20;99.90
4050;DHT22;2039;50.894;6.888;2024-02-28T02:58:42;4.20;99.90
4050;DHT22;2039;50.894;6.888;2024-02-28T03:01:08;4.10;99.90
4050;DHT22;2039;50.894;6.888;2024-02-28T03:03:34;4.20;99.90
4050;DHT22;2039;50.894;6.888;2024-02-28T03:06:00;4.10;99.90
4050;DHT22;2039;50.894;6.888;2024-02-28T03:08:26;4.20;99.90
4050;DHT22;2039;50.894;6.888;2024-02-28T03:10:54;4.20;99.90
4050;DHT22;2039;50.894;6.888;2024-02-28T03:13:20;4.30;99.90
4050;DHT22;2039;50.894;6.888;2024-02-28T03:15:45;4.30;99.90
4050;DHT22;2039;50.894;6.888;2024-02-28T03:18:11;4.30;99.90
4050;DHT22;2039;50.894;6.888;2024-02-28T03:20:37;4.40;99.90
4050;DHT22;2039;50.894;6.888;2024-02-28T03:23:04;4.40;99.90
4050;DHT22;2039;50.894;6.888;2024-02-28T03:25:32;4.50;99.90
4050;DHT22;2039;50.894;6.888;2024-02-28T03:27:58;4.40;99.90
4050;DHT22;2039;50.894;6.888;2024-02-28T03:30:25;4.40;99.90
4050;DHT22;2039;50.894;6.888;2024-02-28T03:32:51;4.50;99.90
4050;DHT22;2039;50.894;6.888;2024-02-28T03:35:16;4.40;99.90
4050;DHT22;2039;50.894;6.888;2024-02-28T03:37:42;4.50;99.90
4050;DHT22;2039;50.894;6.888;2024-02-28T03:40:08;4.50;99.90
4050;DHT22;2039;50.894;6.888;2024-02-28T03:42:34;4.50;99.90
4050;DHT22;2039;50.894;6.888;2024-02-28T03:44:59;4.50;99.90
4050;DHT22;2039;50.894;6.888;2024-02-28T03:47:25;4.50;99.90
4050;DHT22;2039;50.894;6.888;2024-02-28T03:49:51;4.50;99.90
4050;DHT22;2039;50.894;6.888;2024-02-28T03:52:17;4.50;99.90
4050;DHT22;2039;50.894;6.888;2024-02-28T03:54:45;4.50;99.90
4050;DHT22;2039;50.894;6.888;2024-02-28T03:57:11;4.60;99.90
4050;DHT22;2039;50.894;6.888;2024-02-28T03:59:36;4.70;99.90
4050;DHT22;2039;50.894;6.888;2024-02-28T04:02:02;4.70;99.90
4050;DHT22;2039;50.894;6.888;2024-02-28T04:04:28;4.80;99.90
4050;DHT22;2039;50.894;6.888;2024-02-28T04:06:53;4.80;99.90
4050;DHT22;2039;50.894;6.888;2024-02-28T04:09:19;4.70;99.90
4050;DHT22;2039;50.894;6.888;2024-02-28T04:11:45;4.80;99.90
4050;DHT22;2039;50.894;6.888;2024-02-28T04:14:11;4.80;99.90
4050;DHT22;2039;50.894;6.888;2024-02-28T04:16:43;4.70;99.90
4050;DHT22;2039;50.894;6.888;2024-02-28T04:19:10;4.60;99.90
4050;DHT22;2039;50.894;6.888;2024-02-28T04:21:36;4.60;99.90
4050;DHT22;2039;50.894;6.888;2024-02-28T04:24:02;4.50;99.90
4050;DHT22;2039;50.894;6.888;2024-02-28T04:26:28;4.50;99.90
4050;DHT22;2039;50.894;6.888;2024-02-28T04:28:54;4.50;99.90
4050;DHT22;2039;50.894;6.888;2024-02-28T04:31:20;4.50;99.90
4050;DHT22;2039;50.894;6.888;2024-02-28T04:33:46;4.50;99.90
4050;DHT22;2039;50.894;6.888;2024-02-28T04:36:11;4.50;99.90
4050;DHT22;2039;50.894;6.888;2024-02-28T04:38:37;4.50;99.90
4050;DHT22;2039;50.894;6.888;2024-02-28T04:41:03;4.50;99.90
4050;DHT22;2039;50.894;6.888;2024-02-28T04:43:28;4.60;99.90
4050;DHT22;2039;50.894;6.888;2024-02-28T04:45:54;4.60;99.90
4050;DHT22;2039;50.894;6.888;2024-02-28T04:48:20;4.60;99.90
4050;DHT22;2039;50.894;6.888;2024-02-28T04:50:46;4.60;99.90
4050;DHT22;2039;50.894;6.888;2024-02-28T04:53:11;4.60;99.90
4050;DHT22;2039;50.894;6.888;2024-02-28T04:55:37;4.60;99.90
4050;DHT22;2039;50.894;6.888;2024-02-28T04:58:03;4.70;99.90
4050;DHT22;2039;50.894;6.888;2024-02-28T05:00:28;4.80;99.90
4050;DHT22;2039;50.894;6.888;2024-02-28T05:02:54;4.70;99.90
4050;DHT22;2039;50.894;6.888;2024-02-28T05:05:19;4.70;99.90
4050;DHT22;2039;50.894;6.888;2024-02-28T05:07:45;4.90;99.90
4050;DHT22;2039;50.894;6.888;2024-02-28T05:10:11;4.80;99.90
4050;DHT22;2039;50.894;6.888;2024-02-28T05:12:36;4.80;99.90
4050;DHT22;2039;50.894;6.888;2024-02-28T05:15:02;4.80;99.90
4050;DHT22;2039;50.894;6.888;2024-02-28T05:17:28;4.80;99.90
4050;DHT22;2039;50.894;6.888;2024-02-28T05:19:54;4.90;99.90
4050;DHT22;2039;50.894;6.888;2024-02-28T05:22:22;4.90;99.90
4050;DHT22;2039;50.894;6.888;2024-02-28T05:24:49;4.90;99.90
4050;DHT22;2039;50.894;6.888;2024-02-28T05:27:15;4.80;99.90
4050;DHT22;2039;50.894;6.888;2024-02-28T05:29:40;4.90;99.90
4050;DHT22;2039;50.894;6.888;2024-02-28T05:32:08;4.90;99.90
4050;DHT22;2039;50.894;6.888;2024-02-28T05:34:34;4.90;99.90
4050;DHT22;2039;50.894;6.888;2024-02-28T05:37:00;4.80;99.90
4050;DHT22;2039;50.894;6.888;2024-02-28T05:39:27;4.90;99.90
4050;DHT22;2039;50.894;6.888;2024-02-28T05:41:54;4.80;99.90
4050;DHT22;2039;50.894;6.888;2024-02-28T05:44:20;4.80;99.90
4050;DHT22;2039;50.894;6.888;2024-02-28T05:46:46;4.80;99.90
4050;DHT22;2039;50.894;6.888;2024-02-28T05:49:12;4.80;99.90
4050;DHT22;2039;50.894;6.888;2024-02-28T05:51:37;4.80;99.90
4050;DHT22;2039;50.894;6.888;2024-02-28T05:54:03;4.80;99.90
4050;DHT22;2039;50.894;6.888;2024-02-28T05:56:29;4.70;99.90
4050;DHT22;2039;50.894;6.888;2024-02-28T05:58:55;4.70;99.90
4050;DHT22;2039;50.894;6.888;2024-02-28T06:01:21;4.80;99.90
4050;DHT22;2039;50.894;6.888;2024-02-28T06:03:50;4.80;99.90
4050;DHT22;2039;50.894;6.888;2024-02-28T06:06:16;4.80;99.90
4050;DHT22;2039;50.894;6.888;2024-02-28T06:08:43;4.80;99.90
4050;DHT22;2039;50.894;6.888;2024-02-28T06:11:09;4.80;99.90
4050;DHT22;2039;50.894;6.888;2024-02-28T06:13:36;4.80;99.90
4050;DHT22;2039;50.894;6.888;2024-02-28T06:16:02;4.70;99.90
4050;DHT22;2039;50.894;6.888;2024-02-28T06:18:28;4.70;99.90
4050;DHT22;2039;50.894;6.888;2024-02-28T06:20:59;4.80;99.90
4050;DHT22;2039;50.894;6.888;2024-02-28T06:23:25;4.80;99.90
4050;DHT22;2039;50.894;6.888;2024-02-28T06:25:51;4.80;99.90
4050;DHT22;2039;50.894;6.888;2024-02-28T06:28:17;4.80;99.90
4050;DHT22;2039;50.894;6.888;2024-02-28T06:30:43;4.80;99.90
4050;DHT22;2039;50.894;6.888;2024-02-28T06:33:12;4.70;99.90
4050;DHT22;2039;50.894;6.888;2024-02-28T06:35:37;4.70;99.90
4050;DHT22;2039;50.894;6.888;2024-02-28T06:38:03;4.60;99.90
4050;DHT22;2039;50.894;6.888;2024-02-28T06:40:29;4.50;99.90
4050;DHT22;2039;50.894;6.888;2024-02-28T06:42:54;4.50;99.90
4050;DHT22;2039;50.894;6.888;2024-02-28T06:45:20;4.50;99.90
4050;DHT22;2039;50.894;6.888;2024-02-28T06:47:46;4.60;99.90
4050;DHT22;2039;50.894;6.888;2024-02-28T06:50:12;4.60;99.90
4050;DHT22;2039;50.894;6.888;2024-02-28T06:52:38;4.50;99.90
4050;DHT22;2039;50.894;6.888;2024-02-28T06:55:03;4.50;99.90
4050;DHT22;2039;50.894;6.888;2024-02-28T06:57:39;4.50;99.90
4050;DHT22;2039;50.894;6.888;2024-02-28T07:00:06;4.60;99.90
4050;DHT22;2039;50.894;6.888;2024-02-28T07:02:36;4.60;99.90
4050;DHT22;2039;50.894;6.888;2024-02-28T07:05:03;4.60;99.90
4050;DHT22;2039;50.894;6.888;2024-02-28T07:07:33;4.60;99.90
4050;DHT22;2039;50.894;6.888;2024-02-28T07:09:59;4.70;99.90
4050;DHT22;2039;50.894;6.888;2024-02-28T07:12:24;4.70;99.90
4050;DHT22;2039;50.894;6.888;2024-02-28T07:14:51;4.70;99.90
4050;DHT22;2039;50.894;6.888;2024-02-28T07:17:16;4.80;99.90
4050;DHT22;2039;50.894;6.888;2024-02-28T07:19:45;4.80;99.90
4050;DHT22;2039;50.894;6.888;2024-02-28T07:22:11;4.90;99.90
4050;DHT22;2039;50.894;6.888;2024-02-28T07:24:37;4.80;99.90
4050;DHT22;2039;50.894;6.888;2024-02-28T07:27:03;4.80;99.90
4050;DHT22;2039;50.894;6.888;2024-02-28T07:29:28;4.90;99.90
4050;DHT22;2039;50.894;6.888;2024-02-28T07:31:54;4.90;99.90
4050;DHT22;2039;50.894;6.888;2024-02-28T07:34:20;4.90;99.90
4050;DHT22;2039;50.894;6.888;2024-02-28T07:36:46;4.80;99.90
4050;DHT22;2039;50.894;6.888;2024-02-28T07:39:11;4.80;99.90
4050;DHT22;2039;50.894;6.888;2024-02-28T07:41:41;4.80;99.90
4050;DHT22;2039;50.894;6.888;2024-02-28T07:44:07;4.90;99.90
4050;DHT22;2039;50.894;6.888;2024-02-28T07:46:33;4.90;99.90
4050;DHT22;2039;50.894;6.888;2024-02-28T07:49:00;5.00;99.90
4050;DHT22;2039;50.894;6.888;2024-02-28T07:51:26;5.00;99.90
4050;DHT22;2039;50.894;6.888;2024-02-28T07:53:52;5.10;99.90
4050;DHT22;2039;50.894;6.888;2024-02-28T07:56:18;5.10;99.90
4050;DHT22;2039;50.894;6.888;2024-02-28T07:58:45;5.20;99.90
4050;DHT22;2039;50.894;6.888;2024-02-28T08:01:11;5.20;99.90
4050;DHT22;2039;50.894;6.888;2024-02-28T08:03:36;5.20;99.90
4050;DHT22;2039;50.894;6.888;2024-02-28T08:06:02;5.20;99.90
4050;DHT22;2039;50.894;6.888;2024-02-28T08:08:32;5.20;99.90
4050;DHT22;2039;50.894;6.888;2024-02-28T08:10:57;5.30;99.90
4050;DHT22;2039;50.894;6.888;2024-02-28T08:13:23;5.30;99.90
4050;DHT22;2039;50.894;6.888;2024-02-28T08:15:49;5.40;99.90
4050;DHT22;2039;50.894;6.888;2024-02-28T08:18:14;5.40;99.90
4050;DHT22;2039;50.894;6.888;2024-02-28T08:20:40;5.50;99.90
4050;DHT22;2039;50.894;6.888;2024-02-28T08:23:09;5.50;99.90
4050;DHT22;2039;50.894;6.888;2024-02-28T08:25:34;5.60;99.90
4050;DHT22;2039;50.894;6.888;2024-02-28T08:28:00;5.70;99.90
4050;DHT22;2039;50.894;6.888;2024-02-28T08:30:29;5.70;99.90
4050;DHT22;2039;50.894;6.888;2024-02-28T08:32:58;5.90;99.90
4050;DHT22;2039;50.894;6.888;2024-02-28T08:35:23;5.90;99.90
4050;DHT22;2039;50.894;6.888;2024-02-28T08:37:49;5.90;99.90
4050;DHT22;2039;50.894;6.888;2024-02-28T08:40:15;6.00;99.90
4050;DHT22;2039;50.894;6.888;2024-02-28T08:42:41;6.20;99.90
4050;DHT22;2039;50.894;6.888;2024-02-28T08:45:07;6.20;99.90
4050;DHT22;2039;50.894;6.888;2024-02-28T08:47:34;6.40;99.90
4050;DHT22;2039;50.894;6.888;2024-02-28T08:49:59;6.30;99.90
4050;DHT22;2039;50.894;6.888;2024-02-28T08:52:25;6.30;99.90
4050;DHT22;2039;50.894;6.888;2024-02-28T08:54:51;6.30;99.90
4050;DHT22;2039;50.894;6.888;2024-02-28T08:57:16;6.30;99.90
4050;DHT22;2039;50.894;6.888;2024-02-28T08:59:42;6.20;99.90
4050;DHT22;2039;50.894;6.888;2024-02-28T09:02:08;6.10;99.90
4050;DHT22;2039;50.894;6.888;2024-02-28T09:04:34;6.20;99.90
4050;DHT22;2039;50.894;6.888;2024-02-28T09:07:00;6.30;99.90
4050;DHT22;2039;50.894;6.888;2024-02-28T09:09:26;6.30;99.90
4050;DHT22;2039;50.894;6.888;2024-02-28T09:11:53;6.20;99.90
4050;DHT22;2039;50.894;6.888;2024-02-28T09:14:19;6.30;99.90
4050;DHT22;2039;50.894;6.888;2024-02-28T09:16:44;6.40;99.90
4050;DHT22;2039;50.894;6.888;2024-02-28T09:19:10;6.30;99.90
4050;DHT22;2039;50.894;6.888;2024-02-28T09:21:36;6.30;99.90
4050;DHT22;2039;50.894;6.888;2024-02-28T09:24:05;6.30;99.90
4050;DHT22;2039;50.894;6.888;2024-02-28T09:26:30;6.40;99.90
4050;DHT22;2039;50.894;6.888;2024-02-28T09:28:56;6.40;99.90
4050;DHT22;2039;50.894;6.888;2024-02-28T09:31:22;6.60;99.90
4050;DHT22;2039;50.894;6.888;2024-02-28T09:33:47;6.80;99.90
4050;DHT22;2039;50.894;6.888;2024-02-28T09:36:14;6.90;99.90
4050;DHT22;2039;50.894;6.888;2024-02-28T09:38:41;7.00;99.90
4050;DHT22;2039;50.894;6.888;2024-02-28T09:41:07;7.00;99.90
4050;DHT22;2039;50.894;6.888;2024-02-28T09:43:40;7.00;99.90
4050;DHT22;2039;50.894;6.888;2024-02-28T09:46:07;7.10;99.90
4050;DHT22;2039;50.894;6.888;2024-02-28T09:48:33;7.00;99.90
4050;DHT22;2039;50.894;6.888;2024-02-28T09:51:00;7.20;99.90
4050;DHT22;2039;50.894;6.888;2024-02-28T09:53:26;7.10;99.90
4050;DHT22;2039;50.894;6.888;2024-02-28T09:55:52;7.00;99.90
4050;DHT22;2039;50.894;6.888;2024-02-28T09:58:18;7.10;99.90
4050;DHT22;2039;50.894;6.888;2024-02-28T10:00:47;7.10;99.90
4050;DHT22;2039;50.894;6.888;2024-02-28T10:03:19;7.10;99.90
4050;DHT22;2039;50.894;6.888;2024-02-28T10:05:47;7.20;99.90
4050;DHT22;2039;50.894;6.888;2024-02-28T10:08:15;7.20;99.90
4050;DHT22;2039;50.894;6.888;2024-02-28T10:10:50;7.30;99.90
4050;DHT22;2039;50.894;6.888;2024-02-28T10:13:20;7.30;99.90
4050;DHT22;2039;50.894;6.888;2024-02-28T10:15:45;7.20;99.90
4050;DHT22;2039;50.894;6.888;2024-02-28T10:18:11;7.20;99.90
4050;DHT22;2039;50.894;6.888;2024-02-28T10:20:37;7.50;99.90
4050;DHT22;2039;50.894;6.888;2024-02-28T10:23:07;7.50;99.90
4050;DHT22;2039;50.894;6.888;2024-02-28T10:25:45;7.40;99.90
4050;DHT22;2039;50.894;6.888;2024-02-28T10:28:12;7.70;99.90
4050;DHT22;2039;50.894;6.888;2024-02-28T10:30:43;7.80;99.90
4050;DHT22;2039;50.894;6.888;2024-02-28T10:33:15;7.90;99.90
4050;DHT22;2039;50.894;6.888;2024-02-28T10:35:42;7.90;99.90
4050;DHT22;2039;50.894;6.888;2024-02-28T10:38:14;7.90;99.90
4050;DHT22;2039;50.894;6.888;2024-02-28T10:40:40;8.10;99.90
4050;DHT22;2039;50.894;6.888;2024-02-28T10:43:08;8.30;99.90
4050;DHT22;2039;50.894;6.888;2024-02-28T10:45:36;8.10;99.90
4050;DHT22;2039;50.894;6.888;2024-02-28T10:48:03;8.10;99.90
4050;DHT22;2039;50.894;6.888;2024-02-28T10:50:29;8.30;99.90
4050;DHT22;2039;50.894;6.888;2024-02-28T10:53:04;8.50;99.90
4050;DHT22;2039;50.894;6.888;2024-02-28T10:55:34;8.30;99.90
4050;DHT22;2039;50.894;6.888;2024-02-28T10:58:07;8.30;99.90
4050;DHT22;2039;50.894;6.888;2024-02-28T11:00:35;8.30;99.90
4050;DHT22;2039;50.894;6.888;2024-02-28T11:03:02;8.50;99.90
4050;DHT22;2039;50.894;6.888;2024-02-28T11:05:42;8.50;99.90
4050;DHT22;2039;50.894;6.888;2024-02-28T11:08:19;8.50;99.90
4050;DHT22;2039;50.894;6.888;2024-02-28T11:10:45;8.70;99.90
4050;DHT22;2039;50.894;6.888;2024-02-28T11:13:22;8.70;99.90
4050;DHT22;2039;50.894;6.888;2024-02-28T11:15:48;8.90;99.90
4050;DHT22;2039;50.894;6.888;2024-02-28T11:18:14;8.80;99.90
4050;DHT22;2039;50.894;6.888;2024-02-28T11:20:39;9.10;99.90
4050;DHT22;2039;50.894;6.888;2024-02-28T11:23:09;9.30;91.50
4050;DHT22;2039;50.894;6.888;2024-02-28T11:25:35;9.30;70.20
4050;DHT22;2039;50.894;6.888;2024-02-28T11:28:04;9.50;35.50
4050;DHT22;2039;50.894;6.888;2024-02-28T11:30:30;9.50;5.00
4050;DHT22;2039;50.894;6.888;2024-02-28T11:32:57;9.50;7.20
4050;DHT22;2039;50.894;6.888;2024-02-28T11:35:27;9.50;2.00
4050;DHT22;2039;50.894;6.888;2024-02-28T11:37:56;9.50;1.00
4050;DHT22;2039;50.894;6.888;2024-02-28T11:40:25;9.80;6.10
4050;DHT22;2039;50.894;6.888;2024-02-28T11:42:55;9.80;1.00
4050;DHT22;2039;50.894;6.888;2024-02-28T11:45:22;10.20;1.00
4050;DHT22;2039;50.894;6.888;2024-02-28T11:47:47;10.20;1.00
4050;DHT22;2039;50.894;6.888;2024-02-28T11:50:13;10.00;1.00
4050;DHT22;2039;50.894;6.888;2024-02-28T11:52:40;9.70;1.00
4050;DHT22;2039;50.894;6.888;2024-02-28T11:55:06;9.60;1.00
4050;DHT22;2039;50.894;6.888;2024-02-28T11:57:32;9.60;1.00
4050;DHT22;2039;50.894;6.888;2024-02-28T12:00:09;9.80;1.00
4050;DHT22;2039;50.894;6.888;2024-02-28T12:02:39;10.00;1.00
4050;DHT22;2039;50.894;6.888;2024-02-28T12:05:05;10.10;1.00
4050;DHT22;2039;50.894;6.888;2024-02-28T12:07:31;10.10;1.00
4050;DHT22;2039;50.894;6.888;2024-02-28T12:09:58;10.20;1.00
4050;DHT22;2039;50.894;6.888;2024-02-28T12:12:24;9.80;1.00
4050;DHT22;2039;50.894;6.888;2024-02-28T12:14:50;9.60;1.00
4050;DHT22;2039;50.894;6.888;2024-02-28T12:17:17;9.80;1.00
4050;DHT22;2039;50.894;6.888;2024-02-28T12:19:43;10.20;1.00
4050;DHT22;2039;50.894;6.888;2024-02-28T12:22:09;10.20;1.00
4050;DHT22;2039;50.894;6.888;2024-02-28T12:24:34;10.00;1.00
4050;DHT22;2039;50.894;6.888;2024-02-28T12:27:00;10.40;1.00
4050;DHT22;2039;50.894;6.888;2024-02-28T12:29:28;10.50;1.00
4050;DHT22;2039;50.894;6.888;2024-02-28T12:31:54;10.40;1.00
4050;DHT22;2039;50.894;6.888;2024-02-28T12:34:20;10.60;1.00
4050;DHT22;2039;50.894;6.888;2024-02-28T12:36:46;10.70;1.00
4050;DHT22;2039;50.894;6.888;2024-02-28T12:39:12;10.80;1.00
4050;DHT22;2039;50.894;6.888;2024-02-28T12:41:38;10.50;1.00
4050;DHT22;2039;50.894;6.888;2024-02-28T12:44:05;10.40;1.00
4050;DHT22;2039;50.894;6.888;2024-02-28T12:46:32;10.70;1.00
4050;DHT22;2039;50.894;6.888;2024-02-28T12:48:58;10.70;1.00
4050;DHT22;2039;50.894;6.888;2024-02-28T12:51:43;10.80;1.00
4050;DHT22;2039;50.894;6.888;2024-02-28T12:54:10;11.10;1.00
4050;DHT22;2039;50.894;6.888;2024-02-28T12:56:43;11.00;1.00
4050;DHT22;2039;50.894;6.888;2024-02-28T12:59:09;10.80;1.00
4050;DHT22;2039;50.894;6.888;2024-02-28T13:01:34;10.80;1.00
4050;DHT22;2039;50.894;6.888;2024-02-28T13:04:00;11.00;1.00
4050;DHT22;2039;50.894;6.888;2024-02-28T13:06:26;10.90;1.00
4050;DHT22;2039;50.894;6.888;2024-02-28T13:08:52;10.80;1.00
4050;DHT22;2039;50.894;6.888;2024-02-28T13:11:30;10.70;1.00
4050;DHT22;2039;50.894;6.888;2024-02-28T13:13:56;10.50;1.00
4050;DHT22;2039;50.894;6.888;2024-02-28T13:16:21;10.50;1.00
4050;DHT22;2039;50.894;6.888;2024-02-28T13:18:47;10.70;1.00
4050;DHT22;2039;50.894;6.888;2024-02-28T13:21:13;10.90;1.00
4050;DHT22;2039;50.894;6.888;2024-02-28T13:23:39;10.70;1.00
4050;DHT22;2039;50.894;6.888;2024-02-28T13:26:06;10.60;1.00
4050;DHT22;2039;50.894;6.888;2024-02-28T13:28:35;10.60;1.00
4050;DHT22;2039;50.894;6.888;2024-02-28T13:31:02;10.60;1.00
4050;DHT22;2039;50.894;6.888;2024-02-28T13:33:29;10.70;1.00
4050;DHT22;2039;50.894;6.888;2024-02-28T13:35:54;10.70;1.00
4050;DHT22;2039;50.894;6.888;2024-02-28T13:38:20;10.50;1.00
4050;DHT22;2039;50.894;6.888;2024-02-28T13:40:47;10.30;1.00
4050;DHT22;2039;50.894;6.888;2024-02-28T13:43:13;10.40;1.00
4050;DHT22;2039;50.894;6.888;2024-02-28T13:45:39;10.60;1.00
4050;DHT22;2039;50.894;6.888;2024-02-28T13:48:16;10.60;1.00
4050;DHT22;2039;50.894;6.888;2024-02-28T13:50:43;10.70;1.00
4050;DHT22;2039;50.894;6.888;2024-02-28T13:53:09;10.60;1.00
4050;DHT22;2039;50.894;6.888;2024-02-28T13:55:35;10.40;1.00
4050;DHT22;2039;50.894;6.888;2024-02-28T13:58:00;10.40;1.00
4050;DHT22;2039;50.894;6.888;2024-02-28T14:00:26;10.40;1.00
4050;DHT22;2039;50.894;6.888;2024-02-28T14:02:52;10.40;1.00
4050;DHT22;2039;50.894;6.888;2024-02-28T14:05:18;10.50;1.00
4050;DHT22;2039;50.894;6.888;2024-02-28T14:07:43;10.60;1.00
4050;DHT22;2039;50.894;6.888;2024-02-28T14:10:09;10.60;1.00
4050;DHT22;2039;50.894;6.888;2024-02-28T14:12:37;10.60;1.00
4050;DHT22;2039;50.894;6.888;2024-02-28T14:15:04;10.70;1.00
4050;DHT22;2039;50.894;6.888;2024-02-28T14:17:31;10.70;1.00
4050;DHT22;2039;50.894;6.888;2024-02-28T14:19:57;10.80;1.00
4050;DHT22;2039;50.894;6.888;2024-02-28T14:22:22;10.80;1.00
4050;DHT22;2039;50.894;6.888;2024-02-28T14:24:48;10.70;1.00
4050;DHT22;2039;50.894;6.888;2024-02-28T14:27:16;10.60;1.00
4050;DHT22;2039;50.894;6.888;2024-02-28T14:29:42;10.60;1.00
4050;DHT22;2039;50.894;6.888;2024-02-28T14:32:08;10.60;1.00
4050;DHT22;2039;50.894;6.888;2024-02-28T14:34:33;10.80;1.00
4050;DHT22;2039;50.894;6.888;2024-02-28T14:36:59;10.90;1.00
4050;DHT22;2039;50.894;6.888;2024-02-28T14:39:24;10.70;1.00
4050;DHT22;2039;50.894;6.888;2024-02-28T14:41:50;10.60;1.00
4050;DHT22;2039;50.894;6.888;2024-02-28T14:44:16;10.70;1.00
4050;DHT22;2039;50.894;6.888;2024-02-28T14:46:42;10.80;1.00
4050;DHT22;2039;50.894;6.888;2024-02-28T14:49:09;10.80;1.00
4050;DHT22;2039;50.894;6.888;2024-02-28T14:51:35;10.90;1.00
4050;DHT22;2039;50.894;6.888;2024-02-28T14:54:01;11.00;1.00
4050;DHT22;2039;50.894;6.888;2024-02-28T14:56:27;11.00;1.00
4050;DHT22;2039;50.894;6.888;2024-02-28T14:58:54;10.80;1.00
4050;DHT22;2039;50.894;6.888;2024-02-28T15:01:21;10.80;1.00
4050;DHT22;2039;50.894;6.888;2024-02-28T15:03:47;10.80;1.00
4050;DHT22;2039;50.894;6.888;2024-02-28T15:06:14;10.80;1.00
4050;DHT22;2039;50.894;6.888;2024-02-28T15:08:39;10.80;1.00
4050;DHT22;2039;50.894;6.888;2024-02-28T15:11:05;10.70;1.00
4050;DHT22;2039;50.894;6.888;2024-02-28T15:13:31;10.60;1.00
4050;DHT22;2039;50.894;6.888;2024-02-28T15:15:56;10.60;1.00
4050;DHT22;2039;50.894;6.888;2024-02-28T15:18:22;10.50;1.00
4050;DHT22;2039;50.894;6.888;2024-02-28T15:20:48;10.80;1.00
4050;DHT22;2039;50.894;6.888;2024-02-28T15:23:14;10.80;1.00
4050;DHT22;2039;50.894;6.888;2024-02-28T15:25:39;10.80;1.00
4050;DHT22;2039;50.894;6.888;2024-02-28T15:28:05;10.70;1.00
4050;DHT22;2039;50.894;6.888;2024-02-28T15:30:31;10.70;1.00
4050;DHT22;2039;50.894;6.888;2024-02-28T15:32:56;10.70;1.00
4050;DHT22;2039;50.894;6.888;2024-02-28T15:35:22;10.90;1.00
4050;DHT22;2039;50.894;6.888;2024-02-28T15:37:48;11.00;1.00
4050;DHT22;2039;50.894;6.888;2024-02-28T15:40:14;10.90;1.00
4050;DHT22;2039;50.894;6.888;2024-02-28T15:42:41;11.00;1.00
4050;DHT22;2039;50.894;6.888;2024-02-28T15:45:07;10.90;1.00
4050;DHT22;2039;50.894;6.888;2024-02-28T15:47:33;11.00;1.00
4050;DHT22;2039;50.894;6.888;2024-02-28T15:49:59;10.90;1.00
4050;DHT22;2039;50.894;6.888;2024-02-28T15:52:25;11.10;1.00
4050;DHT22;2039;50.894;6.888;2024-02-28T15:54:51;11.20;1.00
4050;DHT22;2039;50.894;6.888;2024-02-28T15:57:16;11.30;1.00
4050;DHT22;2039;50.894;6.888;2024-02-28T15:59:42;11.30;1.00
4050;DHT22;2039;50.894;6.888;2024-02-28T16:02:09;11.20;1.00
4050;DHT22;2039;50.894;6.888;2024-02-28T16:04:35;11.10;1.00
4050;DHT22;2039;50.894;6.888;2024-02-28T16:07:01;10.90;1.00
4050;DHT22;2039;50.894;6.888;2024-02-28T16:09:26;10.70;1.00
4050;DHT22;2039;50.894;6.888;2024-02-28T16:11:52;10.70;1.00
4050;DHT22;2039;50.894;6.888;2024-02-28T16:14:18;10.70;1.00